La Cassidaigne — FT7120 — position and weather

sailwx.info

Track history (hours):
 
Tides and Currents Weather Stations Pressure Air Temp Water Temp Dewpoint Dewpoint Depression Visibility Wind Speed Wind Dir Waves Ship Positions

La Cassidaigne

Last reported at 2016-May-28 20:24 UTC. Time now 2016-May-31 07:51 UTC.
Position N 43°23' E 004°59'.

Length 16 m; draft 1 m.

Type: Other ship. MMSI: 227005760.

Date/timePositionNaut miles runAvg speedWind from/ knotsBaromVisibWave heightAir tempDewpointWater temp
2016-May-28 20:24N 43°23' E 004°59'1 0.1
2016-May-27 20:11N 43°23' E 004°57'2 3.5
2016-May-27 19:33N 43°24' E 004°59'0 0.0
2016-May-27 18:33N 43°24' E 004°59'0 0.0
2016-May-27 17:33N 43°24' E 004°59'0 0.0
2016-May-27 16:33N 43°24' E 004°59'0 0.2
2016-May-27 15:33N 43°24' E 004°59'0 0.2
2016-May-27 14:34N 43°24' E 004°59'0 0.0
2016-May-27 13:33N 43°24' E 004°59'0 0.0
2016-May-27 12:34N 43°24' E 004°59'1 1.2
2016-May-27 11:31N 43°24' E 004°58'1 1.3
2016-May-27 10:33N 43°24' E 004°59'2 2.2
2016-May-27 09:33N 43°22' E 004°59'2 2.0
2016-May-27 08:33N 43°24' E 004°59'0 0.2
2016-May-27 07:33N 43°24' E 004°59'1 0.8
2016-May-27 06:33N 43°23' E 004°59'1 0.8
2016-May-27 05:33N 43°24' E 004°59'0 0.0
2016-May-26 17:28N 43°24' E 004°59'3 3.2
2016-May-26 16:31N 43°22' E 004°57'3 3.2
2016-May-26 15:33N 43°24' E 004°59'0 0.0
2016-May-26 14:33N 43°24' E 004°59'0 0.1
2016-May-26 13:33N 43°24' E 004°59'3 3.3
2016-May-26 12:33N 43°21' E 004°57'0 0.4
2016-May-26 11:33N 43°22' E 004°57'3 3.2
2016-May-26 10:33N 43°24' E 004°59'0 0.1
2016-May-26 09:33N 43°24' E 004°59'0 0.1
2016-May-26 08:33N 43°24' E 004°59'0 0.0
2016-May-26 07:33N 43°24' E 004°59'0 0.1
2016-May-26 06:33N 43°24' E 004°59'0 0.0
2016-May-25 16:07N 43°24' E 004°59'0 0.0
2016-May-25 15:33N 43°24' E 004°59'0 0.0
2016-May-25 14:33N 43°24' E 004°59'0 0.0
2016-May-25 13:33N 43°24' E 004°59'0 0.0
2016-May-25 12:33N 43°24' E 004°59'0 0.0
2016-May-25 11:33N 43°24' E 004°59'0 0.0
2016-May-25 10:33N 43°24' E 004°59'0 0.0
2016-May-25 09:33N 43°24' E 004°59'0 0.0
2016-May-25 08:33N 43°24' E 004°59'2 1.7
2016-May-25 07:33N 43°22' E 004°59'0 0.1
2016-May-25 06:33N 43°23' E 004°59'2 0.1
2016-May-24 14:21N 43°24' E 004°59'0 0.0
2016-May-24 13:33N 43°24' E 004°59'0 0.0
2016-May-24 12:33N 43°24' E 004°59'0 0.0
2016-May-24 11:34N 43°24' E 004°59'1 1.4
2016-May-24 10:33N 43°23' E 004°58'0 0.4
2016-May-24 09:32N 43°23' E 004°58'1 1.0
2016-May-24 08:33N 43°24' E 004°59'4 0.3
2016-May-23 18:33N 43°21' E 004°60'4 4.1
2016-May-23 17:31N 43°25' E 004°59'3 2.5
2016-May-23 16:17N 43°26' E 004°55'4 4.8
2016-May-23 15:33N 43°24' E 004°59'4 4.2
2016-May-23 14:33N 43°25' E 004°53'4 4.2
2016-May-23 13:33N 43°24' E 004°59'4 3.5
2016-May-23 12:32N 43°21' E 004°60'0 0.0
2016-May-23 11:33N 43°21' E 004°60'5 4.9
2016-May-23 10:32N 43°24' E 004°55'1 0.8
2016-May-23 09:30N 43°24' E 004°56'2 2.5
2016-May-23 08:33N 43°24' E 004°59'1 0.6
2016-May-23 07:33N 43°24' E 004°59'0 0.0
2016-May-23 06:33N 43°24' E 004°59'0 0.0
2016-May-22 17:32N 43°24' E 004°59'0 0.0
2016-May-22 16:33N 43°24' E 004°59'3 0.2
2016-May-21 23:25N 43°22' E 004°57'3 3.1
2016-May-21 22:33N 43°24' E 004°59'0 0.0
2016-May-21 21:33N 43°24' E 004°59'3 2.5
2016-May-21 20:19N 43°21' E 005°00'2 0.9
2016-May-21 17:33N 43°23' E 004°58'1 1.3
2016-May-21 16:33N 43°24' E 004°59'0 0.0
2016-May-21 15:33N 43°24' E 004°59'0 0.1
2016-May-21 14:33N 43°24' E 004°59'0 0.1
2016-May-21 13:33N 43°24' E 004°59'0 0.0
2016-May-21 12:33N 43°24' E 004°59'0 0.0
2016-May-21 11:33N 43°24' E 004°59'0 0.0
2016-May-21 10:33N 43°24' E 004°59'0 0.0
2016-May-21 09:33N 43°24' E 004°59'0 0.0
2016-May-21 08:33N 43°24' E 004°59'1 0.6
2016-May-21 07:33N 43°24' E 004°59'0 0.0
2016-May-20 14:33N 43°24' E 004°59'1 0.7
2016-May-20 13:33N 43°23' E 004°59'1 1.3
2016-May-20 12:33N 43°24' E 004°59'0 0.0
2016-May-20 11:33N 43°24' E 004°59'0 0.0
2016-May-20 10:33N 43°24' E 004°59'0 0.0
2016-May-20 09:33N 43°24' E 004°59'0 0.0
2016-May-20 08:33N 43°24' E 004°59'0 0.0
2016-May-20 07:33N 43°24' E 004°59'0 0.0
2016-May-20 06:33N 43°24' E 004°59'0 0.0
2016-May-20 05:33N 43°24' E 004°59'0 0.0
2016-May-19 14:34N 43°24' E 004°59'0 0.0
2016-May-19 13:33N 43°24' E 004°59'0 0.0
2016-May-19 12:33N 43°24' E 004°59'0 0.4
2016-May-19 11:33N 43°24' E 004°60'3 2.6
2016-May-19 10:33N 43°21' E 004°59'3 2.8
2016-May-19 09:33N 43°24' E 004°59'0 0.0
2016-May-19 08:34N 43°24' E 004°59'0 0.0
2016-May-19 07:34N 43°24' E 004°59'1 1.1
2016-May-19 06:33N 43°24' E 004°58'  
Track history (hours):
 
Tides and Currents Weather Stations Pressure Air Temp Water Temp Dewpoint Dewpoint Depression Visibility Wind Speed Wind Dir Waves Ship Positions

La Cassidaigne

Last reported at 2016-May-28 20:24 UTC. Time now 2016-May-31 07:51 UTC.
Position N 43°23' E 004°59'.

Length 16 m; draft 1 m.

Type: Other ship. MMSI: 227005760.

Date/timePositionNaut miles runAvg speedWind from/ knotsBaromVisibWave heightAir tempDewpointWater temp
2016-May-28 20:24N 43°23' E 004°59'1 0.1
2016-May-27 20:11N 43°23' E 004°57'2 3.5
2016-May-27 19:33N 43°24' E 004°59'0 0.0
2016-May-27 18:33N 43°24' E 004°59'0 0.0
2016-May-27 17:33N 43°24' E 004°59'0 0.0
2016-May-27 16:33N 43°24' E 004°59'0 0.2
2016-May-27 15:33N 43°24' E 004°59'0 0.2
2016-May-27 14:34N 43°24' E 004°59'0 0.0
2016-May-27 13:33N 43°24' E 004°59'0 0.0
2016-May-27 12:34N 43°24' E 004°59'1 1.2
2016-May-27 11:31N 43°24' E 004°58'1 1.3
2016-May-27 10:33N 43°24' E 004°59'2 2.2
2016-May-27 09:33N 43°22' E 004°59'2 2.0
2016-May-27 08:33N 43°24' E 004°59'0 0.2
2016-May-27 07:33N 43°24' E 004°59'1 0.8
2016-May-27 06:33N 43°23' E 004°59'1 0.8
2016-May-27 05:33N 43°24' E 004°59'0 0.0
2016-May-26 17:28N 43°24' E 004°59'3 3.2
2016-May-26 16:31N 43°22' E 004°57'3 3.2
2016-May-26 15:33N 43°24' E 004°59'0 0.0
2016-May-26 14:33N 43°24' E 004°59'0 0.1
2016-May-26 13:33N 43°24' E 004°59'3 3.3
2016-May-26 12:33N 43°21' E 004°57'0 0.4
2016-May-26 11:33N 43°22' E 004°57'3 3.2
2016-May-26 10:33N 43°24' E 004°59'0 0.1
2016-May-26 09:33N 43°24' E 004°59'0 0.1
2016-May-26 08:33N 43°24' E 004°59'0 0.0
2016-May-26 07:33N 43°24' E 004°59'0 0.1
2016-May-26 06:33N 43°24' E 004°59'0 0.0
2016-May-25 16:07N 43°24' E 004°59'0 0.0
2016-May-25 15:33N 43°24' E 004°59'0 0.0
2016-May-25 14:33N 43°24' E 004°59'0 0.0
2016-May-25 13:33N 43°24' E 004°59'0 0.0
2016-May-25 12:33N 43°24' E 004°59'0 0.0
2016-May-25 11:33N 43°24' E 004°59'0 0.0
2016-May-25 10:33N 43°24' E 004°59'0 0.0
2016-May-25 09:33N 43°24' E 004°59'0 0.0
2016-May-25 08:33N 43°24' E 004°59'2 1.7
2016-May-25 07:33N 43°22' E 004°59'0 0.1
2016-May-25 06:33N 43°23' E 004°59'2 0.1
2016-May-24 14:21N 43°24' E 004°59'0 0.0
2016-May-24 13:33N 43°24' E 004°59'0 0.0
2016-May-24 12:33N 43°24' E 004°59'0 0.0
2016-May-24 11:34N 43°24' E 004°59'1 1.4
2016-May-24 10:33N 43°23' E 004°58'0 0.4
2016-May-24 09:32N 43°23' E 004°58'1 1.0
2016-May-24 08:33N 43°24' E 004°59'4 0.3
2016-May-23 18:33N 43°21' E 004°60'4 4.1
2016-May-23 17:31N 43°25' E 004°59'3 2.5
2016-May-23 16:17N 43°26' E 004°55'4 4.8
2016-May-23 15:33N 43°24' E 004°59'4 4.2
2016-May-23 14:33N 43°25' E 004°53'4 4.2
2016-May-23 13:33N 43°24' E 004°59'4 3.5
2016-May-23 12:32N 43°21' E 004°60'0 0.0
2016-May-23 11:33N 43°21' E 004°60'5 4.9
2016-May-23 10:32N 43°24' E 004°55'1 0.8
2016-May-23 09:30N 43°24' E 004°56'2 2.5
2016-May-23 08:33N 43°24' E 004°59'1 0.6
2016-May-23 07:33N 43°24' E 004°59'0 0.0
2016-May-23 06:33N 43°24' E 004°59'0 0.0
2016-May-22 17:32N 43°24' E 004°59'0 0.0
2016-May-22 16:33N 43°24' E 004°59'3 0.2
2016-May-21 23:25N 43°22' E 004°57'3 3.1
2016-May-21 22:33N 43°24' E 004°59'0 0.0
2016-May-21 21:33N 43°24' E 004°59'3 2.5
2016-May-21 20:19N 43°21' E 005°00'2 0.9
2016-May-21 17:33N 43°23' E 004°58'1 1.3
2016-May-21 16:33N 43°24' E 004°59'0 0.0
2016-May-21 15:33N 43°24' E 004°59'0 0.1
2016-May-21 14:33N 43°24' E 004°59'0 0.1
2016-May-21 13:33N 43°24' E 004°59'0 0.0
2016-May-21 12:33N 43°24' E 004°59'0 0.0
2016-May-21 11:33N 43°24' E 004°59'0 0.0
2016-May-21 10:33N 43°24' E 004°59'0 0.0
2016-May-21 09:33N 43°24' E 004°59'0 0.0
2016-May-21 08:33N 43°24' E 004°59'1 0.6
2016-May-21 07:33N 43°24' E 004°59'0 0.0
2016-May-20 14:33N 43°24' E 004°59'1 0.7
2016-May-20 13:33N 43°23' E 004°59'1 1.3
2016-May-20 12:33N 43°24' E 004°59'0 0.0
2016-May-20 11:33N 43°24' E 004°59'0 0.0
2016-May-20 10:33N 43°24' E 004°59'0 0.0
2016-May-20 09:33N 43°24' E 004°59'0 0.0
2016-May-20 08:33N 43°24' E 004°59'0 0.0
2016-May-20 07:33N 43°24' E 004°59'0 0.0
2016-May-20 06:33N 43°24' E 004°59'0 0.0
2016-May-20 05:33N 43°24' E 004°59'0 0.0
2016-May-19 14:34N 43°24' E 004°59'0 0.0
2016-May-19 13:33N 43°24' E 004°59'0 0.0
2016-May-19 12:33N 43°24' E 004°59'0 0.4
2016-May-19 11:33N 43°24' E 004°60'3 2.6
2016-May-19 10:33N 43°21' E 004°59'3 2.8
2016-May-19 09:33N 43°24' E 004°59'0 0.0
2016-May-19 08:34N 43°24' E 004°59'0 0.0
2016-May-19 07:34N 43°24' E 004°59'1 1.1
2016-May-19 06:33N 43°24' E 004°58'  

Dump ship's entire track history